createdAt,value
2023-05-20T00:04:04.180Z,98831.50
2023-05-20T00:09:05.818Z,98827.16
2023-05-20T00:14:07.321Z,98821.66
2023-05-20T00:19:08.820Z,98830.34
2023-05-20T00:24:10.522Z,98828.41
2023-05-20T00:29:12.243Z,98827.16
2023-05-20T00:34:13.798Z,98824.88
2023-05-20T00:39:15.420Z,98834.44
2023-05-20T00:44:18.796Z,98820.81
2023-05-20T00:49:20.988Z,98817.31
2023-05-20T00:54:22.574Z,98811.31
2023-05-20T00:59:25.031Z,98824.16
2023-05-20T01:04:27.020Z,98815.81
2023-05-20T01:09:31.263Z,98803.81
2023-05-20T01:14:38.098Z,98811.75
2023-05-20T01:19:44.211Z,98797.63
2023-05-20T01:24:48.587Z,98795.38
2023-05-20T01:29:52.122Z,98786.63
2023-05-20T01:34:55.118Z,98805.00
2023-05-20T01:39:57.266Z,98796.78
2023-05-20T01:44:59.501Z,98809.44
2023-05-20T01:50:01.287Z,98806.44
2023-05-20T01:55:02.890Z,98801.69
2023-05-20T02:00:06.259Z,98797.88
2023-05-20T02:05:08.234Z,98791.16
2023-05-20T02:10:10.513Z,98796.50
2023-05-20T02:15:12.289Z,98800.53
2023-05-20T02:20:14.077Z,98783.56
2023-05-20T02:25:16.127Z,98781.94
2023-05-20T02:30:18.138Z,98775.97
2023-05-20T02:35:19.737Z,98780.66
2023-05-20T02:40:21.352Z,98778.72
2023-05-20T02:45:22.928Z,98780.25
2023-05-20T02:50:24.669Z,98783.88
2023-05-20T02:55:26.239Z,98780.13
2023-05-20T03:00:30.550Z,98791.88
2023-05-20T03:05:32.814Z,98790.41
2023-05-20T03:10:34.758Z,98793.47
2023-05-20T03:15:36.944Z,98781.63
2023-05-20T03:20:38.726Z,98785.06
2023-05-20T03:25:40.717Z,98794.03
2023-05-20T03:30:42.281Z,98798.31
2023-05-20T03:35:43.904Z,98795.41
2023-05-20T03:40:45.481Z,98792.75
2023-05-20T03:45:47.068Z,98800.47
2023-05-20T03:50:49.755Z,98802.16
2023-05-20T03:55:51.334Z,98790.28
2023-05-20T04:00:52.900Z,98799.34
2023-05-20T04:05:54.476Z,98804.16
2023-05-20T04:10:57.482Z,98808.88
2023-05-20T04:16:01.542Z,98796.16
2023-05-20T04:21:03.185Z,98793.28
2023-05-20T04:26:04.777Z,98792.72
2023-05-20T04:31:06.600Z,98796.59
2023-05-20T04:36:12.153Z,98797.03
2023-05-20T04:41:14.071Z,98803.84
2023-05-20T04:46:16.595Z,98801.28
2023-05-20T04:51:18.202Z,98803.22
2023-05-20T04:56:19.775Z,98805.34
2023-05-20T05:01:21.431Z,98800.00
2023-05-20T05:06:23.013Z,98804.69
2023-05-20T05:11:24.606Z,98805.56
2023-05-20T05:16:26.422Z,98813.47
2023-05-20T05:21:28.070Z,98815.50
2023-05-20T05:26:29.704Z,98807.72
2023-05-20T05:31:31.325Z,98812.41
2023-05-20T05:36:33.964Z,98816.22
2023-05-20T05:41:35.892Z,98805.53
2023-05-20T05:46:37.491Z,98805.09
2023-05-20T05:51:39.254Z,98805.13
2023-05-20T05:56:40.965Z,98812.69
2023-05-20T06:01:42.604Z,98812.25
2023-05-20T06:06:44.203Z,98816.94
2023-05-20T06:11:45.981Z,98807.66
2023-05-20T06:16:47.616Z,98803.38
2023-05-20T06:21:49.250Z,98801.91
2023-05-20T06:26:51.171Z,98791.69
2023-05-20T06:31:52.740Z,98794.56
2023-05-20T06:36:54.361Z,98790.09
2023-05-20T06:41:56.002Z,98791.47
2023-05-20T06:46:57.586Z,98792.34
2023-05-20T06:51:59.166Z,98794.28
2023-05-20T06:57:00.921Z,98786.56
2023-05-20T07:02:03.097Z,98779.59
2023-05-20T07:07:04.866Z,98779.91
2023-05-20T07:12:06.909Z,98772.00
2023-05-20T07:17:08.516Z,98768.38
2023-05-20T07:22:10.078Z,98768.38
2023-05-20T07:27:11.711Z,98773.03
2023-05-20T07:32:13.317Z,98768.41
2023-05-20T07:37:16.021Z,98765.72
2023-05-20T07:42:17.644Z,98761.97
2023-05-20T07:47:19.313Z,98760.47
2023-05-20T07:52:20.901Z,98757.41
2023-05-20T07:57:22.546Z,98754.84
2023-05-20T08:02:24.182Z,98751.44
2023-05-20T08:07:25.898Z,98745.50
2023-05-20T08:12:27.452Z,98741.47
2023-05-20T08:17:29.070Z,98734.88
2023-05-20T08:22:31.432Z,98716.13
2023-05-20T08:27:33.008Z,98719.38
2023-05-20T08:32:34.581Z,98705.59
2023-05-20T08:37:36.292Z,98695.66
2023-05-20T08:42:41.809Z,98684.88
2023-05-20T08:47:44.409Z,98684.94
2023-05-20T08:52:48.293Z,98687.50
2023-05-20T08:57:56.021Z,98677.22
2023-05-20T09:03:01.155Z,98679.66
2023-05-20T09:08:12.359Z,98687.19
2023-05-20T09:13:13.904Z,98681.72
2023-05-20T09:18:15.642Z,98677.00
2023-05-20T09:23:19.542Z,98676.91
2023-05-20T09:28:26.844Z,98671.53
2023-05-20T09:33:32.396Z,98679.41
2023-05-20T09:38:39.111Z,98675.25
2023-05-20T09:43:41.206Z,98662.00
2023-05-20T09:48:43.394Z,98666.41
2023-05-20T09:53:45.151Z,98661.50
2023-05-20T09:58:49.754Z,98653.28
2023-05-20T10:03:53.330Z,98651.03
2023-05-20T10:09:01.087Z,98650.41
2023-05-20T10:14:36.553Z,98653.19
2023-05-20T10:19:38.285Z,98644.63
2023-05-20T10:24:42.977Z,98636.56
2023-05-20T10:29:52.408Z,98642.81
2023-05-20T10:35:00.181Z,98648.16
2023-05-20T10:40:21.420Z,98645.03
2023-05-20T10:45:28.047Z,98645.50
2023-05-20T10:50:37.610Z,98640.19
2023-05-20T10:55:41.596Z,98638.63
2023-05-20T11:00:43.667Z,98627.16
2023-05-20T11:05:48.891Z,98618.78
2023-05-20T11:10:50.620Z,98617.31
2023-05-20T11:15:52.500Z,98608.84
2023-05-20T11:20:54.483Z,98600.63
2023-05-20T11:25:57.449Z,98600.06
2023-05-20T11:31:00.041Z,98592.09
2023-05-20T11:36:03.389Z,98587.88
2023-05-20T11:41:07.426Z,98585.69
2023-05-20T11:46:09.954Z,98577.63
2023-05-20T11:51:11.523Z,98583.16
2023-05-20T11:56:14.606Z,98575.97
2023-05-20T12:01:22.162Z,98571.47
2023-05-20T12:06:24.586Z,98567.69
2023-05-20T12:11:26.148Z,98571.00
2023-05-20T12:16:27.972Z,98554.44
2023-05-20T12:21:30.158Z,98564.34
2023-05-20T12:26:35.234Z,98556.13
2023-05-20T12:31:37.408Z,98554.84
2023-05-20T12:36:39.077Z,98547.34
2023-05-20T12:41:42.867Z,98540.63
2023-05-20T12:46:44.636Z,98543.19
2023-05-20T12:51:46.245Z,98540.41
2023-05-20T12:56:48.466Z,98536.22
2023-05-20T13:01:50.470Z,98529.47
2023-05-20T13:06:52.205Z,98527.31
2023-05-20T13:11:53.825Z,98525.09
2023-05-20T13:16:55.647Z,98526.03
2023-05-20T13:21:57.342Z,98524.66
2023-05-20T13:26:59.066Z,98517.28
2023-05-20T13:32:02.107Z,98524.47
2023-05-20T13:37:03.845Z,98515.47
2023-05-20T13:42:05.659Z,98504.03
2023-05-20T13:47:07.484Z,98492.97
2023-05-20T13:52:09.167Z,98496.50
2023-05-20T13:57:10.976Z,98488.63
2023-05-20T14:02:12.744Z,98474.16
2023-05-20T14:07:14.398Z,98470.38
2023-05-20T14:12:16.036Z,98472.16
2023-05-20T14:17:17.885Z,98460.75
2023-05-20T14:22:20.016Z,98469.22
2023-05-20T14:27:22.840Z,98468.59
2023-05-20T14:32:24.711Z,98461.03
2023-05-20T14:37:28.028Z,98459.78
2023-05-20T14:42:29.640Z,98452.25
2023-05-20T14:47:31.268Z,98448.34
2023-05-20T14:52:32.961Z,98443.38
2023-05-20T14:57:34.575Z,98438.13
2023-05-20T15:02:36.383Z,98432.25
2023-05-20T15:07:38.388Z,98426.69
2023-05-20T15:12:40.366Z,98432.59
2023-05-20T15:17:41.990Z,98433.66
2023-05-20T15:22:47.829Z,98428.25
2023-05-20T15:27:50.149Z,98411.13
2023-05-20T15:32:51.797Z,98401.09
2023-05-20T15:37:53.472Z,98394.16
2023-05-20T15:42:55.120Z,98393.13
2023-05-20T15:47:56.924Z,98397.44
2023-05-20T15:52:58.636Z,98404.06
2023-05-20T15:58:00.284Z,98406.09
2023-05-20T16:03:02.093Z,98447.66
2023-05-20T16:08:03.778Z,98450.97
2023-05-20T16:13:05.479Z,98480.97
2023-05-20T16:18:07.275Z,98474.78
2023-05-20T16:23:08.899Z,98513.81
2023-05-20T16:28:10.481Z,98504.50
2023-05-20T16:33:13.407Z,98520.78
2023-05-20T16:38:15.093Z,98505.63
2023-05-20T16:43:16.671Z,98492.63
2023-05-20T16:48:18.264Z,98480.03
2023-05-20T16:53:19.949Z,98463.34
2023-05-20T16:58:21.599Z,98448.91
2023-05-20T17:03:23.210Z,98439.50
2023-05-20T17:08:24.807Z,98438.09
2023-05-20T17:13:26.756Z,98461.06
2023-05-20T17:18:28.474Z,98467.25
2023-05-20T17:23:30.227Z,98465.69
2023-05-20T17:28:32.012Z,98478.53
2023-05-20T17:33:34.139Z,98485.22
2023-05-20T17:38:36.475Z,98482.06
2023-05-20T17:43:38.520Z,98484.91
2023-05-20T17:48:45.429Z,98486.13
2023-05-20T17:53:47.609Z,98483.56
2023-05-20T17:58:50.010Z,98478.22
2023-05-20T18:03:52.416Z,98489.34
2023-05-20T18:08:56.501Z,98508.16
2023-05-20T18:14:00.041Z,98510.41
2023-05-20T18:19:03.396Z,98520.81
2023-05-20T18:24:06.326Z,98525.28
2023-05-20T18:29:08.635Z,98532.69
2023-05-20T18:34:11.262Z,98514.81
2023-05-20T18:39:14.794Z,98503.47
2023-05-20T18:44:18.588Z,98518.94
2023-05-20T18:49:21.062Z,98562.31
2023-05-20T18:54:23.382Z,98547.47
2023-05-20T18:59:25.772Z,98572.41
2023-05-20T19:04:28.142Z,98579.88
2023-05-20T19:09:30.500Z,98556.66
2023-05-20T19:14:32.880Z,98557.91
2023-05-20T19:19:35.230Z,98542.72
2023-05-20T19:24:37.800Z,98534.28
2023-05-20T19:29:40.171Z,98536.47
2023-05-20T19:34:42.622Z,98551.53
2023-05-20T19:39:45.002Z,98560.22
2023-05-20T19:44:47.397Z,98563.94
2023-05-20T19:49:49.852Z,98561.69
2023-05-20T19:54:52.231Z,98564.13
2023-05-20T19:59:54.625Z,98576.72
2023-05-20T20:04:57.051Z,98574.50
2023-05-20T20:09:59.527Z,98574.22
2023-05-20T20:15:01.895Z,98583.34
2023-05-20T20:20:10.785Z,98590.22
2023-05-20T20:25:14.593Z,98587.75
2023-05-20T20:30:18.159Z,98590.09
2023-05-20T20:35:23.218Z,98581.44
2023-05-20T20:40:26.225Z,98574.28
2023-05-20T20:45:28.402Z,98571.56
2023-05-20T20:50:31.599Z,98565.25
2023-05-20T20:55:34.721Z,98559.81
2023-05-20T21:00:37.356Z,98561.38
2023-05-20T21:05:39.205Z,98576.00
2023-05-20T21:10:41.133Z,98567.69
2023-05-20T21:15:43.101Z,98553.06
2023-05-20T21:20:44.650Z,98555.94
2023-05-20T21:25:46.514Z,98549.19
2023-05-20T21:30:48.086Z,98549.28
2023-05-20T21:35:49.707Z,98558.44
2023-05-20T21:40:51.310Z,98561.41
2023-05-20T21:45:52.959Z,98556.28
2023-05-20T21:50:54.556Z,98548.63
2023-05-20T21:55:56.307Z,98535.47
2023-05-20T22:00:58.062Z,98545.38
2023-05-20T22:05:59.611Z,98543.88
2023-05-20T22:11:05.481Z,98536.56
2023-05-20T22:16:07.991Z,98538.34
2023-05-20T22:21:09.603Z,98532.38
2023-05-20T22:26:11.186Z,98530.50
2023-05-20T22:31:13.419Z,98522.47
2023-05-20T22:36:14.990Z,98513.94
2023-05-20T22:41:16.581Z,98507.09
2023-05-20T22:46:18.189Z,98496.22
2023-05-20T22:51:21.394Z,98495.91
2023-05-20T22:56:23.777Z,98499.44
2023-05-20T23:01:25.339Z,98511.53
2023-05-20T23:06:26.934Z,98513.44
2023-05-20T23:11:28.505Z,98501.09
2023-05-20T23:16:30.524Z,98491.78
2023-05-20T23:21:32.154Z,98496.13
2023-05-20T23:26:34.618Z,98477.28
2023-05-20T23:31:36.772Z,98474.94
2023-05-20T23:36:41.962Z,98472.22
2023-05-20T23:41:43.689Z,98470.25
2023-05-20T23:46:45.346Z,98455.34
2023-05-20T23:51:46.944Z,98452.16
2023-05-20T23:56:49.416Z,98458.66
